createdAt,value
2017-07-05T00:00:16.103Z,1013.88
2017-07-05T00:01:25.682Z,1013.86
2017-07-05T00:02:34.956Z,1013.87
2017-07-05T00:03:43.921Z,1013.87
2017-07-05T00:04:52.583Z,1013.86
2017-07-05T00:06:01.851Z,1013.85
2017-07-05T00:07:10.839Z,1013.8
2017-07-05T00:08:20.424Z,1013.81
2017-07-05T00:09:29.374Z,1013.8
2017-07-05T00:10:38.970Z,1013.79
2017-07-05T00:11:47.938Z,1013.82
2017-07-05T00:12:56.595Z,1013.81
2017-07-05T00:14:05.881Z,1013.81
2017-07-05T00:15:15.467Z,1013.78
2017-07-05T00:16:25.063Z,1013.79
2017-07-05T00:17:34.019Z,1013.78
2017-07-05T00:18:42.663Z,1013.78
2017-07-05T00:19:51.938Z,1013.8
2017-07-05T00:21:00.902Z,1013.82
2017-07-05T00:22:09.861Z,1013.8
2017-07-05T00:23:18.823Z,1013.83
2017-07-05T00:24:28.107Z,1013.79
2017-07-05T00:25:37.391Z,1013.83
2017-07-05T00:26:46.362Z,1013.79
2017-07-05T00:27:55.014Z,1013.82
2017-07-05T00:29:04.615Z,1013.82
2017-07-05T00:30:13.576Z,1013.8
2017-07-05T00:31:22.223Z,1013.75
2017-07-05T00:32:30.877Z,1013.75
2017-07-05T00:33:40.462Z,1013.72
2017-07-05T00:34:49.415Z,1013.73
2017-07-05T00:35:58.366Z,1013.7
2017-07-05T00:37:07.330Z,1013.73
2017-07-05T00:38:16.599Z,1013.72
2017-07-05T00:39:25.552Z,1013.73
2017-07-05T00:40:35.155Z,1013.74
2017-07-05T00:41:44.748Z,1013.71
2017-07-05T00:42:54.014Z,1013.73
2017-07-05T00:44:02.966Z,1013.73
2017-07-05T00:45:12.236Z,1013.72
2017-07-05T00:46:21.825Z,1013.73
2017-07-05T00:47:31.119Z,1013.76
2017-07-05T00:48:39.754Z,1013.76
2017-07-05T00:49:49.080Z,1013.77
2017-07-05T00:50:58.039Z,1013.82
2017-07-05T00:52:07.014Z,1013.81
2017-07-05T00:53:16.030Z,1013.83
2017-07-05T00:54:25.297Z,1013.79
2017-07-05T00:55:34.578Z,1013.79
2017-07-05T00:56:43.869Z,1013.76
2017-07-05T00:57:52.512Z,1013.79
2017-07-05T00:59:01.469Z,1013.76
2017-07-05T01:00:10.759Z,1013.79
2017-07-05T01:01:20.348Z,1013.79
2017-07-05T01:02:29.609Z,1013.8
2017-07-05T01:03:38.568Z,1013.79
2017-07-05T01:04:47.846Z,1013.82
2017-07-05T01:05:56.805Z,1013.81
2017-07-05T01:07:06.089Z,1013.85
2017-07-05T01:08:15.388Z,1013.84
2017-07-05T01:09:24.973Z,1013.84
2017-07-05T01:10:33.932Z,1013.86
2017-07-05T01:11:43.210Z,1013.82
2017-07-05T01:12:52.485Z,1013.81
2017-07-05T01:14:01.456Z,1013.79
2017-07-05T01:15:10.095Z,1013.77
2017-07-05T01:16:19.059Z,1013.78
2017-07-05T01:17:28.009Z,1013.72
2017-07-05T01:18:36.963Z,1013.75
2017-07-05T01:19:45.923Z,1013.74
2017-07-05T01:20:55.509Z,1013.71
2017-07-05T01:22:04.154Z,1013.67
2017-07-05T01:23:13.135Z,1013.69
2017-07-05T01:24:22.082Z,1013.69
2017-07-05T01:25:30.743Z,1013.66
2017-07-05T01:26:40.012Z,1013.71
2017-07-05T01:27:48.649Z,1013.72
2017-07-05T01:28:57.601Z,1013.68
2017-07-05T01:30:06.557Z,1013.75
2017-07-05T01:31:15.513Z,1013.69
2017-07-05T01:32:24.780Z,1013.68
2017-07-05T01:33:34.045Z,1013.67
2017-07-05T01:34:43.001Z,1013.65
2017-07-05T01:35:52.264Z,1013.68
2017-07-05T01:37:01.543Z,1013.67
2017-07-05T01:38:10.495Z,1013.65
2017-07-05T01:39:19.756Z,1013.63
2017-07-05T01:40:28.712Z,1013.68
2017-07-05T01:41:37.680Z,1013.61
2017-07-05T01:42:47.258Z,1013.65
2017-07-05T01:43:55.904Z,1013.6
2017-07-05T01:45:04.856Z,1013.56
2017-07-05T01:46:14.444Z,1013.55
2017-07-05T01:47:23.709Z,1013.55
2017-07-05T01:48:32.974Z,1013.57
2017-07-05T01:49:42.238Z,1013.56
2017-07-05T01:50:51.514Z,1013.57
2017-07-05T01:52:00.781Z,1013.57
2017-07-05T01:53:10.045Z,1013.56
2017-07-05T01:54:19.003Z,1013.57
2017-07-05T01:55:27.960Z,1013.57
2017-07-05T01:56:37.224Z,1013.56
2017-07-05T01:57:46.185Z,1013.52
2017-07-05T01:58:55.464Z,1013.54
2017-07-05T02:00:05.354Z,1013.54
2017-07-05T02:01:14.620Z,1013.55
2017-07-05T02:02:23.261Z,1013.52
2017-07-05T02:03:32.521Z,1013.55
2017-07-05T02:04:41.156Z,1013.55
2017-07-05T02:05:50.107Z,1013.51
2017-07-05T02:06:59.078Z,1013.51
2017-07-05T02:08:08.345Z,1013.53
2017-07-05T02:09:17.301Z,1013.52
2017-07-05T02:10:26.262Z,1013.52
2017-07-05T02:11:36.159Z,1013.52
2017-07-05T02:12:44.801Z,1013.53
2017-07-05T02:13:54.069Z,1013.56
2017-07-05T02:15:02.708Z,1013.5
2017-07-05T02:16:12.297Z,1013.52
2017-07-05T02:17:21.252Z,1013.51
2017-07-05T02:18:29.892Z,1013.5
2017-07-05T02:19:38.861Z,1013.49
2017-07-05T02:20:48.442Z,1013.46
2017-07-05T02:21:57.391Z,1013.46
2017-07-05T02:23:06.031Z,1013.46
2017-07-05T02:24:15.618Z,1013.5
2017-07-05T02:25:24.574Z,1013.45
2017-07-05T02:26:33.531Z,1013.47
2017-07-05T02:27:42.801Z,1013.48
2017-07-05T02:28:51.769Z,1013.48
2017-07-05T02:30:00.428Z,1013.45
2017-07-05T02:31:09.391Z,1013.49
2017-07-05T02:32:18.036Z,1013.46
2017-07-05T02:33:26.986Z,1013.49
2017-07-05T02:34:35.959Z,1013.46
2017-07-05T02:35:44.605Z,1013.47
2017-07-05T02:36:53.875Z,1013.5
2017-07-05T02:38:03.456Z,1013.52
2017-07-05T02:39:12.719Z,1013.51
2017-07-05T02:40:21.667Z,1013.51
2017-07-05T02:41:31.248Z,1013.51
2017-07-05T02:42:40.518Z,1013.47
2017-07-05T02:43:49.476Z,1013.51
2017-07-05T02:44:58.748Z,1013.48
2017-07-05T02:46:07.705Z,1013.46
2017-07-05T02:47:16.969Z,1013.41
2017-07-05T02:48:25.925Z,1013.49
2017-07-05T02:49:34.882Z,1013.42
2017-07-05T02:50:43.828Z,1013.43
2017-07-05T02:51:52.780Z,1013.36
2017-07-05T02:53:01.735Z,1013.35
2017-07-05T02:54:11.005Z,1013.37
2017-07-05T02:55:20.267Z,1013.36
2017-07-05T02:56:28.904Z,1013.34
2017-07-05T02:57:37.867Z,1013.33
2017-07-05T02:58:47.759Z,1013.35
2017-07-05T02:59:56.407Z,1013.32
2017-07-05T03:01:05.692Z,1013.34
2017-07-05T03:02:15.276Z,1013.4
2017-07-05T03:03:25.180Z,1013.37
2017-07-05T03:04:34.198Z,1013.38
2017-07-05T03:05:43.473Z,1013.38
2017-07-05T03:06:52.427Z,1013.35
2017-07-05T03:08:01.384Z,1013.36
2017-07-05T03:09:10.646Z,1013.34
2017-07-05T03:10:19.286Z,1013.31
2017-07-05T03:11:28.248Z,1013.34
2017-07-05T03:12:37.526Z,1013.3
2017-07-05T03:13:46.474Z,1013.28
2017-07-05T03:14:56.058Z,1013.3
2017-07-05T03:16:05.330Z,1013.27
2017-07-05T03:17:15.236Z,1013.25
2017-07-05T03:18:24.182Z,1013.26
2017-07-05T03:19:33.141Z,1013.28
2017-07-05T03:20:42.410Z,1013.27
2017-07-05T03:21:51.359Z,1013.3
2017-07-05T03:22:59.990Z,1013.31
2017-07-05T03:24:08.629Z,1013.33
2017-07-05T03:25:17.571Z,1013.31
2017-07-05T03:26:26.522Z,1013.29
2017-07-05T03:27:35.476Z,1013.34
2017-07-05T03:28:44.749Z,1013.31
2017-07-05T03:29:53.705Z,1013.31
2017-07-05T03:31:02.661Z,1013.3
2017-07-05T03:32:12.236Z,1013.27
2017-07-05T03:33:20.878Z,1013.3
2017-07-05T03:34:29.516Z,1013.25
2017-07-05T03:35:39.106Z,1013.24
2017-07-05T03:36:48.686Z,1013.23
2017-07-05T03:37:57.323Z,1013.19
2017-07-05T03:39:06.912Z,1013.24
2017-07-05T03:40:15.879Z,1013.19
2017-07-05T03:41:24.518Z,1013.2
2017-07-05T03:42:33.167Z,1013.19
2017-07-05T03:43:42.445Z,1013.18
2017-07-05T03:44:52.048Z,1013.23
2017-07-05T03:46:01.007Z,1013.24
2017-07-05T03:47:10.269Z,1013.27
2017-07-05T03:48:19.533Z,1013.26
2017-07-05T03:49:28.812Z,1013.27
2017-07-05T03:50:37.452Z,1013.3
2017-07-05T03:51:46.726Z,1013.31
2017-07-05T03:52:56.014Z,1013.32
2017-07-05T03:54:04.982Z,1013.31
2017-07-05T03:55:13.936Z,1013.33
2017-07-05T03:56:22.898Z,1013.29
2017-07-05T03:57:31.845Z,1013.32
2017-07-05T03:58:40.798Z,1013.3
2017-07-05T03:59:49.437Z,1013.28
2017-07-05T04:00:58.712Z,1013.32
2017-07-05T04:02:07.667Z,1013.33
2017-07-05T04:03:16.958Z,1013.32
2017-07-05T04:04:26.532Z,1013.32
2017-07-05T04:05:35.490Z,1013.31
2017-07-05T04:06:44.759Z,1013.3
2017-07-05T04:07:53.720Z,1013.28
2017-07-05T04:09:02.984Z,1013.25
2017-07-05T04:10:11.940Z,1013.27
2017-07-05T04:11:21.211Z,1013.27
2017-07-05T04:12:30.176Z,1013.3
2017-07-05T04:13:39.764Z,1013.31
2017-07-05T04:14:49.351Z,1013.34
2017-07-05T04:15:58.311Z,1013.32
2017-07-05T04:17:07.572Z,1013.32
2017-07-05T04:18:16.218Z,1013.33
2017-07-05T04:19:24.855Z,1013.32
2017-07-05T04:20:33.490Z,1013.29
2017-07-05T04:21:42.130Z,1013.24
2017-07-05T04:22:51.700Z,1013.27
2017-07-05T04:24:00.337Z,1013.29
2017-07-05T04:25:09.286Z,1013.32
2017-07-05T04:28:31.389Z,1013.31
2017-07-05T04:29:40.667Z,1013.29
2017-07-05T04:30:49.937Z,1013.3
2017-07-05T04:31:59.831Z,1013.27
2017-07-05T04:33:09.107Z,1013.27
2017-07-05T04:34:18.062Z,1013.25
2017-07-05T04:35:27.654Z,1013.24
2017-07-05T04:36:36.604Z,1013.25
2017-07-05T04:37:45.561Z,1013.26
2017-07-05T04:38:54.833Z,1013.25
2017-07-05T04:40:03.778Z,1013.24
2017-07-05T04:41:12.729Z,1013.29
2017-07-05T04:42:21.680Z,1013.3
2017-07-05T04:43:30.631Z,1013.33
2017-07-05T04:44:39.596Z,1013.35
2017-07-05T04:45:48.543Z,1013.39
2017-07-05T04:46:58.131Z,1013.35
2017-07-05T04:48:06.777Z,1013.34
2017-07-05T04:49:15.418Z,1013.34
2017-07-05T04:50:24.378Z,1013.37
2017-07-05T04:51:33.338Z,1013.34
2017-07-05T04:52:42.303Z,1013.37
2017-07-05T04:53:51.261Z,1013.32
2017-07-05T04:54:59.911Z,1013.38
2017-07-05T04:56:09.180Z,1013.38
2017-07-05T04:57:18.138Z,1013.39
2017-07-05T04:58:27.414Z,1013.4
2017-07-05T04:59:36.360Z,1013.44
2017-07-05T05:00:45.319Z,1013.42
2017-07-05T05:01:53.953Z,1013.41
2017-07-05T05:03:03.543Z,1013.42
2017-07-05T05:04:12.496Z,1013.46
2017-07-05T05:05:22.073Z,1013.45
2017-07-05T05:06:31.346Z,1013.42
2017-07-05T05:07:40.619Z,1013.46
2017-07-05T05:08:49.602Z,1013.46
2017-07-05T05:09:58.557Z,1013.45
2017-07-05T05:11:07.834Z,1013.42
2017-07-05T05:12:17.103Z,1013.44
2017-07-05T05:13:26.054Z,1013.41
2017-07-05T05:14:35.332Z,1013.43
2017-07-05T05:15:44.605Z,1013.42
2017-07-05T05:16:53.877Z,1013.42
2017-07-05T05:18:03.457Z,1013.43
2017-07-05T05:19:12.737Z,1013.41
2017-07-05T05:20:21.384Z,1013.4
2017-07-05T05:21:30.348Z,1013.43
2017-07-05T05:22:38.994Z,1013.43
2017-07-05T05:23:47.947Z,1013.39
2017-07-05T05:24:57.208Z,1013.41
2017-07-05T05:26:05.866Z,1013.39
2017-07-05T05:27:14.824Z,1013.38
2017-07-05T05:28:23.461Z,1013.41
2017-07-05T05:29:32.425Z,1013.39
2017-07-05T05:30:41.139Z,1013.39
2017-07-05T05:31:50.091Z,1013.41
2017-07-05T05:32:59.363Z,1013.43
2017-07-05T05:34:08.438Z,1013.42
2017-07-05T05:35:17.468Z,1013.38
2017-07-05T05:36:26.449Z,1013.4
2017-07-05T05:37:35.417Z,1013.43
2017-07-05T05:38:44.057Z,1013.43
2017-07-05T05:39:53.337Z,1013.44
2017-07-05T05:41:01.994Z,1013.46
2017-07-05T05:42:10.638Z,1013.43
2017-07-05T05:43:19.373Z,1013.48
2017-07-05T05:44:28.648Z,1013.47
2017-07-05T05:45:38.234Z,1013.45
2017-07-05T05:46:47.510Z,1013.47
2017-07-05T05:47:56.485Z,1013.45
2017-07-05T05:49:05.881Z,1013.48
2017-07-05T05:50:15.150Z,1013.43
2017-07-05T05:51:24.115Z,1013.44
2017-07-05T05:52:33.096Z,1013.47
2017-07-05T05:53:43.003Z,1013.48
2017-07-05T05:54:51.963Z,1013.49
2017-07-05T05:56:00.611Z,1013.47
2017-07-05T05:57:09.581Z,1013.53
2017-07-05T05:58:19.216Z,1013.51
2017-07-05T05:59:28.176Z,1013.52
2017-07-05T06:00:37.467Z,1013.58
2017-07-05T06:01:46.112Z,1013.58
2017-07-05T06:02:55.408Z,1013.55
2017-07-05T06:04:04.699Z,1013.56
2017-07-05T06:05:13.975Z,1013.59
2017-07-05T06:06:22.619Z,1013.56
2017-07-05T06:07:32.210Z,1013.59
2017-07-05T06:08:40.850Z,1013.58
2017-07-05T06:09:49.808Z,1013.62
2017-07-05T06:10:59.106Z,1013.61
2017-07-05T06:12:08.398Z,1013.63
2017-07-05T06:13:17.349Z,1013.63
2017-07-05T06:14:27.016Z,1013.66
2017-07-05T06:15:35.669Z,1013.63
2017-07-05T06:16:44.654Z,1013.59
2017-07-05T06:17:53.325Z,1013.58
2017-07-05T06:19:02.910Z,1013.6
2017-07-05T06:20:11.560Z,1013.63
2017-07-05T06:21:20.698Z,1013.61
2017-07-05T06:22:30.306Z,1013.63
2017-07-05T06:23:38.969Z,1013.63
2017-07-05T06:24:48.252Z,1013.64
2017-07-05T06:25:57.231Z,1013.68
2017-07-05T06:27:05.892Z,1013.68
2017-07-05T06:28:15.167Z,1013.7
2017-07-05T06:29:24.455Z,1013.7
2017-07-05T06:30:33.757Z,1013.74
2017-07-05T06:31:43.373Z,1013.77
2017-07-05T06:32:52.050Z,1013.78
2017-07-05T06:34:01.352Z,1013.72
2017-07-05T06:35:10.644Z,1013.75
2017-07-05T06:36:19.966Z,1013.77
2017-07-05T06:37:29.255Z,1013.79
2017-07-05T06:38:38.559Z,1013.78
2017-07-05T06:39:48.187Z,1013.77
2017-07-05T06:40:57.166Z,1013.76
2017-07-05T06:42:05.822Z,1013.78
2017-07-05T06:43:15.099Z,1013.78
2017-07-05T06:44:24.084Z,1013.76
2017-07-05T06:45:33.386Z,1013.75
2017-07-05T06:46:42.383Z,1013.77
2017-07-05T06:47:52.083Z,1013.76
2017-07-05T06:49:00.771Z,1013.76
2017-07-05T06:50:09.440Z,1013.77
2017-07-05T06:51:18.428Z,1013.75
2017-07-05T06:52:27.404Z,1013.72
2017-07-05T06:53:36.686Z,1013.77
2017-07-05T06:54:45.957Z,1013.76
2017-07-05T06:55:55.253Z,1013.75
2017-07-05T06:57:03.933Z,1013.75
2017-07-05T06:58:12.600Z,1013.75
2017-07-05T06:59:21.254Z,1013.75
2017-07-05T07:00:31.474Z,1013.73
2017-07-05T07:01:40.758Z,1013.7
2017-07-05T07:02:50.057Z,1013.7
2017-07-05T07:03:58.719Z,1013.73
2017-07-05T07:05:07.993Z,1013.71
2017-07-05T07:06:17.324Z,1013.7
2017-07-05T07:07:26.297Z,1013.67
2017-07-05T07:08:35.282Z,1013.71
2017-07-05T07:09:43.937Z,1013.68
2017-07-05T07:10:52.923Z,1013.68
2017-07-05T07:12:01.592Z,1013.64
2017-07-05T07:13:10.668Z,1013.65
2017-07-05T07:14:19.934Z,1013.7
2017-07-05T07:15:28.628Z,1013.67
2017-07-05T07:16:38.126Z,1013.67
2017-07-05T07:17:47.411Z,1013.56
2017-07-05T07:18:56.701Z,1013.6
2017-07-05T07:20:05.680Z,1013.6
2017-07-05T07:21:14.345Z,1013.59
2017-07-05T07:22:23.301Z,1013.58
2017-07-05T07:23:32.572Z,1013.6
2017-07-05T07:24:41.226Z,1013.6
2017-07-05T07:25:51.136Z,1013.57
2017-07-05T07:27:00.107Z,1013.57
2017-07-05T07:28:09.065Z,1013.61
2017-07-05T07:29:18.032Z,1013.58
2017-07-05T07:30:27.322Z,1013.57
2017-07-05T07:31:36.290Z,1013.58
2017-07-05T07:32:45.569Z,1013.56
2017-07-05T07:33:54.862Z,1013.52
2017-07-05T07:35:03.847Z,1013.53
2017-07-05T07:36:12.499Z,1013.53
2017-07-05T07:37:21.156Z,1013.57
2017-07-05T07:38:30.759Z,1013.64
2017-07-05T07:39:39.810Z,1013.63
2017-07-05T07:40:49.103Z,1013.62
2017-07-05T07:41:58.717Z,1013.63
2017-07-05T07:43:07.375Z,1013.6
2017-07-05T07:44:16.033Z,1013.6
2017-07-05T07:45:24.999Z,1013.6
2017-07-05T07:46:33.660Z,1013.58
2017-07-05T07:47:42.644Z,1013.54
2017-07-05T07:48:51.286Z,1013.52
2017-07-05T07:50:00.905Z,1013.51
2017-07-05T07:51:09.569Z,1013.56
2017-07-05T07:52:18.838Z,1013.56
2017-07-05T07:53:27.489Z,1013.56
2017-07-05T07:54:36.772Z,1013.55
2017-07-05T07:55:46.368Z,1013.58
2017-07-05T07:56:55.708Z,1013.54
2017-07-05T07:58:04.987Z,1013.56
2017-07-05T07:59:13.969Z,1013.53
2017-07-05T08:00:23.235Z,1013.56
2017-07-05T08:01:32.518Z,1013.55
2017-07-05T08:02:42.119Z,1013.58
2017-07-05T08:03:50.786Z,1013.56
2017-07-05T08:05:00.393Z,1013.6
2017-07-05T08:06:09.047Z,1013.61
2017-07-05T08:07:18.010Z,1013.63
2017-07-05T08:08:26.977Z,1013.62
2017-07-05T08:09:36.255Z,1013.6
2017-07-05T08:10:45.218Z,1013.64
2017-07-05T08:11:54.197Z,1013.66
2017-07-05T08:13:03.165Z,1013.69
2017-07-05T08:14:12.469Z,1013.71
2017-07-05T08:15:21.187Z,1013.72
2017-07-05T08:16:29.851Z,1013.7
2017-07-05T08:17:38.506Z,1013.74
2017-07-05T08:18:47.780Z,1013.72
2017-07-05T08:19:57.053Z,1013.67
2017-07-05T08:21:06.022Z,1013.67
2017-07-05T08:22:14.995Z,1013.65
2017-07-05T08:23:23.965Z,1013.68
2017-07-05T08:24:32.921Z,1013.72
2017-07-05T08:25:42.216Z,1013.69
2017-07-05T08:26:51.523Z,1013.69
2017-07-05T08:28:00.502Z,1013.67
2017-07-05T08:29:09.155Z,1013.67
2017-07-05T08:30:18.444Z,1013.68
2017-07-05T08:31:27.095Z,1013.66
2017-07-05T08:32:36.380Z,1013.68
2017-07-05T08:33:45.656Z,1013.67
2017-07-05T08:34:54.320Z,1013.66
2017-07-05T08:36:03.667Z,1013.63
2017-07-05T08:37:13.272Z,1013.7
2017-07-05T08:38:22.547Z,1013.7
2017-07-05T08:39:31.814Z,1013.68
2017-07-05T08:40:40.791Z,1013.63
2017-07-05T08:41:49.764Z,1013.66
2017-07-05T08:42:59.393Z,1013.64
2017-07-05T08:44:09.000Z,1013.59
2017-07-05T08:45:18.597Z,1013.56
2017-07-05T08:46:28.182Z,1013.54
2017-07-05T08:47:37.148Z,1013.63
2017-07-05T08:48:46.428Z,1013.6
2017-07-05T08:49:55.722Z,1013.57
2017-07-05T08:51:04.712Z,1013.61
2017-07-05T08:52:13.993Z,1013.6
2017-07-05T08:53:22.665Z,1013.56
2017-07-05T08:54:31.639Z,1013.59
2017-07-05T08:55:40.928Z,1013.63
2017-07-05T08:56:50.297Z,1013.65
2017-07-05T08:57:58.948Z,1013.67
2017-07-05T08:59:08.222Z,1013.66
2017-07-05T09:00:17.812Z,1013.64
2017-07-05T09:01:26.795Z,1013.67
2017-07-05T09:02:35.452Z,1013.67
2017-07-05T09:03:44.424Z,1013.68
2017-07-05T09:04:53.695Z,1013.67
2017-07-05T09:06:02.357Z,1013.65
2017-07-05T09:07:11.012Z,1013.66
2017-07-05T09:08:19.980Z,1013.71
2017-07-05T09:09:28.949Z,1013.72
2017-07-05T09:10:37.919Z,1013.72
2017-07-05T09:11:46.896Z,1013.71
2017-07-05T09:12:56.192Z,1013.69
2017-07-05T09:14:05.856Z,1013.69
2017-07-05T09:15:14.519Z,1013.69
2017-07-05T09:16:23.803Z,1013.66
2017-07-05T09:17:33.722Z,1013.63
2017-07-05T09:18:42.687Z,1013.68
2017-07-05T09:19:51.655Z,1013.67
2017-07-05T09:21:00.307Z,1013.67
2017-07-05T09:22:09.035Z,1013.65
2017-07-05T09:23:17.747Z,1013.72
2017-07-05T09:24:26.406Z,1013.76
2017-07-05T09:25:35.688Z,1013.75
2017-07-05T09:26:44.976Z,1013.77
2017-07-05T09:27:54.583Z,1013.75
2017-07-05T09:29:03.555Z,1013.73
2017-07-05T09:30:12.842Z,1013.69
2017-07-05T09:31:21.820Z,1013.74
2017-07-05T09:32:30.816Z,1013.7
2017-07-05T09:33:39.792Z,1013.73
2017-07-05T09:34:49.087Z,1013.72
2017-07-05T09:35:58.053Z,1013.73
2017-07-05T09:37:07.657Z,1013.66
2017-07-05T09:38:16.933Z,1013.63
2017-07-05T09:39:25.897Z,1013.65
2017-07-05T09:40:34.853Z,1013.65
2017-07-05T09:41:44.132Z,1013.66
2017-07-05T09:42:53.468Z,1013.65
2017-07-05T09:44:02.746Z,1013.65
2017-07-05T09:45:12.040Z,1013.63
2017-07-05T09:46:21.321Z,1013.69
2017-07-05T09:47:30.290Z,1013.7
2017-07-05T09:48:40.207Z,1013.67
2017-07-05T09:49:49.817Z,1013.7
2017-07-05T09:50:59.428Z,1013.71
2017-07-05T09:52:08.405Z,1013.71
2017-07-05T09:53:17.054Z,1013.71
2017-07-05T09:54:26.331Z,1013.74
2017-07-05T09:55:35.613Z,1013.7
2017-07-05T09:56:44.886Z,1013.7
2017-07-05T09:57:53.854Z,1013.68
2017-07-05T09:59:02.817Z,1013.66
2017-07-05T10:00:12.098Z,1013.65
2017-07-05T10:01:21.452Z,1013.64
2017-07-05T10:02:30.414Z,1013.59
2017-07-05T10:03:39.381Z,1013.59
2017-07-05T10:04:48.679Z,1013.54
2017-07-05T10:05:57.350Z,1013.57
2017-07-05T10:07:06.939Z,1013.57
2017-07-05T10:08:15.578Z,1013.58
2017-07-05T10:09:24.555Z,1013.54
2017-07-05T10:10:34.141Z,1013.52
2017-07-05T10:11:43.104Z,1013.55
2017-07-05T10:12:52.390Z,1013.5
2017-07-05T10:14:01.991Z,1013.49
2017-07-05T10:15:10.954Z,1013.48
2017-07-05T10:16:20.236Z,1013.49
2017-07-05T10:17:29.851Z,1013.44
2017-07-05T10:18:39.120Z,1013.49
2017-07-05T10:19:48.395Z,1013.48
2017-07-05T10:20:57.687Z,1013.52
2017-07-05T10:22:06.655Z,1013.49
2017-07-05T10:23:15.932Z,1013.46
2017-07-05T10:24:24.588Z,1013.45
2017-07-05T10:25:33.566Z,1013.44
2017-07-05T10:26:42.846Z,1013.42
2017-07-05T10:27:52.131Z,1013.43
2017-07-05T10:29:01.732Z,1013.44
2017-07-05T10:30:11.345Z,1013.46
2017-07-05T10:31:20.026Z,1013.51
2017-07-05T10:32:29.352Z,1013.54
2017-07-05T10:33:38.637Z,1013.5
2017-07-05T10:34:47.614Z,1013.53
2017-07-05T10:35:56.581Z,1013.48
2017-07-05T10:37:06.810Z,1013.45
2017-07-05T10:38:15.778Z,1013.48
2017-07-05T10:39:25.057Z,1013.47
2017-07-05T10:40:33.706Z,1013.46
2017-07-05T10:41:42.989Z,1013.46
2017-07-05T10:42:51.975Z,1013.43
2017-07-05T10:44:00.945Z,1013.44
2017-07-05T10:45:10.239Z,1013.44
2017-07-05T10:46:19.524Z,1013.43
2017-07-05T10:47:29.134Z,1013.44
2017-07-05T10:48:37.784Z,1013.42
2017-07-05T10:49:46.443Z,1013.42
2017-07-05T10:50:55.105Z,1013.41
2017-07-05T10:52:04.393Z,1013.43
2017-07-05T10:53:13.041Z,1013.4
2017-07-05T10:54:22.317Z,1013.4
2017-07-05T10:55:31.287Z,1013.41
2017-07-05T10:56:40.261Z,1013.43
2017-07-05T10:57:49.233Z,1013.45
2017-07-05T10:58:58.506Z,1013.37
2017-07-05T11:00:07.789Z,1013.41
2017-07-05T11:01:17.072Z,1013.4
2017-07-05T11:02:26.361Z,1013.45
2017-07-05T11:03:35.335Z,1013.4
2017-07-05T11:04:44.619Z,1013.39
2017-07-05T11:05:53.282Z,1013.31
2017-07-05T11:07:02.565Z,1013.29
2017-07-05T11:08:12.163Z,1013.24
2017-07-05T11:09:20.810Z,1013.23
2017-07-05T11:10:29.789Z,1013.24
2017-07-05T11:11:38.758Z,1013.29
2017-07-05T11:12:47.418Z,1013.29
2017-07-05T11:13:56.385Z,1013.29
2017-07-05T11:15:05.679Z,1013.22
2017-07-05T11:16:14.664Z,1013.28
2017-07-05T11:17:23.951Z,1013.27
2017-07-05T11:18:32.609Z,1013.26
2017-07-05T11:19:41.912Z,1013.27
2017-07-05T11:20:50.879Z,1013.24
2017-07-05T11:22:00.816Z,1013.24
2017-07-05T11:23:09.796Z,1013.24
2017-07-05T11:24:18.780Z,1013.19
2017-07-05T11:25:27.744Z,1013.22
2017-07-05T11:26:37.016Z,1013.13
2017-07-05T11:27:45.778Z,1013.2
2017-07-05T11:28:55.369Z,1013.24
2017-07-05T11:30:04.346Z,1013.2
2017-07-05T11:31:13.014Z,1013.19
2017-07-05T11:32:21.983Z,1013.18
2017-07-05T11:33:31.275Z,1013.18
2017-07-05T11:34:40.264Z,1013.19
2017-07-05T11:35:49.542Z,1013.17
2017-07-05T11:36:58.516Z,1013.19
2017-07-05T11:38:07.494Z,1013.19
2017-07-05T11:39:16.177Z,1013.07
2017-07-05T11:40:24.837Z,1013.05
2017-07-05T11:41:34.181Z,1013.03
2017-07-05T11:42:42.951Z,1013.04
2017-07-05T11:43:51.948Z,1013.06
2017-07-05T11:45:01.229Z,1013.02
2017-07-05T11:46:10.201Z,1013.03
2017-07-05T11:47:19.187Z,1013
2017-07-05T11:48:28.156Z,1013
2017-07-05T11:49:37.448Z,1012.97
2017-07-05T11:50:46.422Z,1012.98
2017-07-05T11:51:55.075Z,1012.96
2017-07-05T11:53:03.746Z,1012.98
2017-07-05T11:54:12.400Z,1013.02
2017-07-05T11:55:21.364Z,1013.04
2017-07-05T11:56:30.363Z,1012.97
2017-07-05T11:57:39.645Z,1012.96
2017-07-05T11:58:48.621Z,1012.93
2017-07-05T11:59:57.284Z,1012.91
2017-07-05T12:01:06.266Z,1012.92
2017-07-05T12:02:15.860Z,1012.89
2017-07-05T12:03:24.828Z,1012.85
2017-07-05T12:04:33.475Z,1012.84
2017-07-05T12:05:42.447Z,1012.79
2017-07-05T12:06:51.141Z,1012.77
2017-07-05T12:08:00.743Z,1012.79
2017-07-05T12:09:09.389Z,1012.79
2017-07-05T12:10:19.014Z,1012.86
2017-07-05T12:11:27.686Z,1012.86
2017-07-05T12:12:36.661Z,1012.85
2017-07-05T12:13:45.642Z,1012.81
2017-07-05T12:14:54.633Z,1012.79
2017-07-05T12:16:03.925Z,1012.76
2017-07-05T12:17:12.899Z,1012.75
2017-07-05T12:18:21.872Z,1012.73
2017-07-05T12:19:31.803Z,1012.71
2017-07-05T12:20:40.782Z,1012.72
2017-07-05T12:21:50.127Z,1012.7
2017-07-05T12:22:58.784Z,1012.67
2017-07-05T12:24:07.771Z,1012.68
2017-07-05T12:25:16.753Z,1012.7
2017-07-05T12:26:25.410Z,1012.69
2017-07-05T12:27:34.078Z,1012.65
2017-07-05T12:28:43.060Z,1012.66
2017-07-05T12:29:52.366Z,1012.64
2017-07-05T12:31:01.347Z,1012.64
2017-07-05T12:32:10.642Z,1012.64
2017-07-05T12:33:19.628Z,1012.68
2017-07-05T12:34:28.632Z,1012.72
2017-07-05T12:35:37.924Z,1012.69
2017-07-05T12:36:46.898Z,1012.63
2017-07-05T12:37:55.897Z,1012.64
2017-07-05T12:39:04.553Z,1012.62
2017-07-05T12:40:13.558Z,1012.61
2017-07-05T12:41:22.537Z,1012.62
2017-07-05T12:42:31.851Z,1012.58
2017-07-05T12:43:41.142Z,1012.57
2017-07-05T12:44:49.812Z,1012.54
2017-07-05T12:45:59.439Z,1012.58
2017-07-05T12:47:08.733Z,1012.56
2017-07-05T12:48:17.715Z,1012.57
2017-07-05T12:49:26.382Z,1012.53
2017-07-05T12:50:35.364Z,1012.48
2017-07-05T12:51:45.032Z,1012.55
2017-07-05T12:52:54.630Z,1012.52
2017-07-05T12:54:03.617Z,1012.57
2017-07-05T12:55:12.604Z,1012.61
2017-07-05T12:56:21.892Z,1012.55
2017-07-05T12:57:30.860Z,1012.52
2017-07-05T12:58:39.551Z,1012.49
2017-07-05T12:59:49.166Z,1012.51
2017-07-05T13:00:58.139Z,1012.49
2017-07-05T13:02:07.110Z,1012.47
2017-07-05T13:03:15.770Z,1012.48
2017-07-05T13:04:25.063Z,1012.48
2017-07-05T13:05:34.354Z,1012.46
2017-07-05T13:06:43.015Z,1012.49
2017-07-05T13:07:51.984Z,1012.49
2017-07-05T13:09:00.947Z,1012.49
2017-07-05T13:10:09.910Z,1012.45
2017-07-05T13:11:19.187Z,1012.43
2017-07-05T13:12:27.840Z,1012.42
2017-07-05T13:13:36.500Z,1012.46
2017-07-05T13:14:45.806Z,1012.45
2017-07-05T13:15:54.457Z,1012.44
2017-07-05T13:17:03.766Z,1012.44
2017-07-05T13:18:12.425Z,1012.44
2017-07-05T13:19:21.401Z,1012.45
2017-07-05T13:20:30.689Z,1012.4
2017-07-05T13:21:39.663Z,1012.38
2017-07-05T13:22:48.978Z,1012.4
2017-07-05T13:23:57.950Z,1012.4
2017-07-05T13:25:06.637Z,1012.39
2017-07-05T13:26:15.606Z,1012.43
2017-07-05T13:27:24.886Z,1012.44
2017-07-05T13:28:33.863Z,1012.44
2017-07-05T13:29:43.460Z,1012.43
2017-07-05T13:30:52.441Z,1012.41
2017-07-05T13:32:01.417Z,1012.41
2017-07-05T13:33:10.710Z,1012.4
2017-07-05T13:34:20.308Z,1012.35
2017-07-05T13:35:28.952Z,1012.39
2017-07-05T13:36:37.922Z,1012.42
2017-07-05T13:37:46.578Z,1012.42
2017-07-05T13:38:55.259Z,1012.4
2017-07-05T13:40:03.973Z,1012.37
2017-07-05T13:41:12.614Z,1012.42
2017-07-05T13:42:21.917Z,1012.37
2017-07-05T13:43:31.849Z,1012.39
2017-07-05T13:44:40.842Z,1012.42
2017-07-05T13:45:49.502Z,1012.41
2017-07-05T13:46:58.485Z,1012.4
2017-07-05T13:48:07.759Z,1012.4
2017-07-05T13:49:17.041Z,1012.4
2017-07-05T13:50:26.036Z,1012.4
2017-07-05T13:51:34.746Z,1012.36
2017-07-05T13:52:44.034Z,1012.38
2017-07-05T13:53:52.847Z,1012.38
2017-07-05T13:55:02.151Z,1012.4
2017-07-05T13:56:11.124Z,1012.38
2017-07-05T13:57:20.095Z,1012.37
2017-07-05T13:58:29.806Z,1012.39
2017-07-05T13:59:39.128Z,1012.38
2017-07-05T14:00:48.411Z,1012.37